VOMLOOSA

Guest
Details From VOML - Mangalore
To OOSA - Salalah
Flight Number -
Tags Generated
Created
Modified
Stats Distance 1,229 nm / 2,277 km
Max Altitude 0 ft / 0 m
Waypoints 3
Social Downloads 0
Likes 0
Share VATSIM

Download

Looking for another format? Having issues loading an existing format? Contact us
Advertisement - Login to hide

Notes

Generated

Route

VOML SLL10 OOSA

ID Type Via Altitude Latitude Longitude Leg Dist Tot Dist Heading (true) Name
O VOML APT - 0 ft / 0 m 12.96116˚ 74.88262˚ - 0 nm - -
SLL10 FIX - 0 ft / 0 m 17.00646˚ 54.31683˚ 1216 nm 1216 nm 284° / 279° -
O OOSA APT - 0 ft / 0 m 17.04026˚ 54.10133˚ 12 nm 1229 nm 279° / 279° SALALAH

Altitude Profile

Advertisement - Login to hide

Weather


0- 5 10 15 20 25 30 35+ Temperature / ° C

Clouds and Precipitation
Forecast for 2017-12-14 00:00 UTC. Updated an hour ago

Ground ~20,000 ft ~40,000 ft Winds

VOML

Details ICAO VOML (IXE)
Name MANGALORE
Region India
Timezone Asia/Kolkata (UTC+5.5)
Stats Elevation 337 ft / 103 m (AMSL)
Location 12.957941° 74.888702°
Runways 2
Magnetic Variation 1.188° W

METAR

Not found

TAF

TAF VOML 131100Z 1312/1418 27005KT 6000 SCT015 BECMG 1315/1316 09005KT BECMG 1318/1319 3000 BR SCT010 TEMPO 1321/1324 1500 BR SCT010 TEMPO 1400/1403 0800 FG SCT005 BECMG 1404/1405 6000 FEW015 BECMG 1406/1407 27005KT

Decode

Departure Runways

ID Width Length Bearing (true) Bearing (mag) Surface Threshold Offset Overrun Length
06 151 ft / 46 m 8,054 ft / 2,455 m 58.13° 59.32° Concrete 394 ft / 120 m 0 ft / 0 m
09 151 ft / 46 m 5,321 ft / 1,622 m 89.10° 90.29° Asphalt 0 ft / 0 m 0 ft / 0 m
24 151 ft / 46 m 8,054 ft / 2,455 m 238.13° 239.32° Concrete 0 ft / 0 m 0 ft / 0 m
27 151 ft / 46 m 5,321 ft / 1,622 m 269.11° 270.30° Asphalt 0 ft / 0 m 0 ft / 0 m

OOSA

Details ICAO OOSA (SLL)
Name SALALAH
Region Oman
Timezone Asia/Muscat (UTC+4.0)
Stats Elevation 73 ft / 22 m (AMSL)
Location 17.036616° 54.096616°
Runways 2
Magnetic Variation 0.881° E

METAR

OOSA 131950Z 02009KT CAVOK 21/M10 Q1017 NOSIG

Decode

TAF

TAF OOSA 131740Z 1318/1500 VRB03KT CAVOK BECMG 1318/1320 01013KT BECMG 1408/1410 14010KT BECMG 1416/1418 35006KT

Decode

Destination Runways

ID Width Length Bearing (true) Bearing (mag) Surface Threshold Offset Overrun Length
07 148 ft / 45 m 10,960 ft / 3,341 m 70.68° 69.80° Asphalt 0 ft / 0 m 197 ft / 60 m
17 59 ft / 18 m 4,217 ft / 1,285 m 174.11° 173.23° Dirt 0 ft / 0 m 5,016 ft / 1,529 m
25 148 ft / 45 m 10,960 ft / 3,341 m 250.69° 249.81° Asphalt 0 ft / 0 m 197 ft / 60 m
35 59 ft / 18 m 4,217 ft / 1,285 m 354.11° 353.23° Dirt 0 ft / 0 m 4,392 ft / 1,339 m

Approach Navaids

Runway Type Ident Frequency Range Bearing (true) Bearing (mag) Slope Elevation
25 Localiser ISL 110.10 MHz 18 nm / 33 km 250.67° 249.79° - 73 ft / 22 m (AMSL)
25 Glidescope ISL 110.10 MHz 10 nm / 19 km 250.68° 249.80° 3.08° 73 ft / 22 m (AMSL)
25 DME ISL 110.10 MHz 18 nm / 33 km - - - 73 ft / 22 m (AMSL)